TGW640 WSSS-VTSM
Flight info
| Callsign | TGW640 |
|---|---|
| Flight time | 1h 25m |
| Altitude | 36000 |
| Route | VMR6A VMR B469 VPK M751 VKB M626 IKOGA Y95 RUMVA |
| Aircraft | A320/M-SDFGHIRWYZ/LB1 |
Departure
| Time | 2026-04-19 04:42 |
|---|---|
| Airport | Singapore Changi Airport (WSSS) |
Arrival
| Time | 2026-04-19 06:08 |
|---|---|
| Airport | Samui International Airport (VTSM) |
| Time | Latitude | Longitude | Altitude | Speed | Heading |
|---|---|---|---|---|---|
| 2026-04-19 04:03 | 1.33840 | 103.98489 | 31 ft | 0 kts | 293° |
| 2026-04-19 04:29 | 1.33837 | 103.98496 | 30 ft | 4 kts | 289° |
| 2026-04-19 04:29 | 1.33832 | 103.98521 | 30 ft | 4 kts | 259° |
| 2026-04-19 04:29 | 1.33843 | 103.98543 | 30 ft | 4 kts | 211° |
| 2026-04-19 04:30 | 1.33849 | 103.98546 | 30 ft | 0 kts | 203° |
| 2026-04-19 04:37 | 1.33836 | 103.98541 | 30 ft | 3 kts | 203° |
| 2026-04-19 04:38 | 1.33809 | 103.98529 | 30 ft | 5 kts | 203° |
| 2026-04-19 04:38 | 1.33769 | 103.98514 | 30 ft | 7 kts | 191° |
| 2026-04-19 04:38 | 1.33731 | 103.98545 | 30 ft | 8 kts | 126° |
| 2026-04-19 04:38 | 1.33676 | 103.98547 | 30 ft | 9 kts | 204° |
| 2026-04-19 04:39 | 1.33610 | 103.98517 | 30 ft | 12 kts | 204° |
| 2026-04-19 04:39 | 1.33530 | 103.98481 | 30 ft | 14 kts | 204° |
| 2026-04-19 04:39 | 1.33437 | 103.98439 | 30 ft | 16 kts | 202° |
| 2026-04-19 04:39 | 1.33329 | 103.98395 | 30 ft | 18 kts | 202° |
| 2026-04-19 04:40 | 1.33208 | 103.98346 | 30 ft | 20 kts | 203° |
| 2026-04-19 04:40 | 1.33087 | 103.98294 | 30 ft | 12 kts | 202° |
| 2026-04-19 04:40 | 1.33018 | 103.98267 | 30 ft | 10 kts | 193° |
| 2026-04-19 04:40 | 1.32971 | 103.98310 | 30 ft | 11 kts | 111° |
| 2026-04-19 04:41 | 1.32940 | 103.98387 | 30 ft | 13 kts | 112° |
| 2026-04-19 04:41 | 1.32905 | 103.98470 | 30 ft | 9 kts | 110° |
| 2026-04-19 04:41 | 1.32928 | 103.98509 | 30 ft | 8 kts | 26° |
| 2026-04-19 04:41 | 1.33036 | 103.98561 | 30 ft | 36 kts | 25° |
| 2026-04-19 04:42 | 1.33485 | 103.98754 | 30 ft | 102 kts | 24° |
| 2026-04-19 04:42 | 1.34300 | 103.99095 | 31 ft | 151 kts | 24° |
| 2026-04-19 04:42 | 1.35335 | 103.99539 | 385 ft | 155 kts | 24° |
| 2026-04-19 04:42 | 1.36339 | 103.99978 | 911 ft | 157 kts | 24° |
| 2026-04-19 04:43 | 1.37358 | 104.00420 | 1400 ft | 163 kts | 23° |
| 2026-04-19 04:43 | 1.38414 | 104.00880 | 1838 ft | 168 kts | 23° |
| 2026-04-19 04:43 | 1.39497 | 104.01364 | 2102 ft | 179 kts | 24° |
| 2026-04-19 04:43 | 1.40707 | 104.01879 | 2338 ft | 197 kts | 22° |
| 2026-04-19 04:44 | 1.42026 | 104.02399 | 2637 ft | 211 kts | 23° |
| 2026-04-19 04:44 | 1.43468 | 104.02988 | 2846 ft | 236 kts | 24° |
| 2026-04-19 04:44 | 1.45059 | 104.03651 | 3234 ft | 258 kts | 23° |
| 2026-04-19 04:44 | 1.46741 | 104.04347 | 3959 ft | 265 kts | 20° |
| 2026-04-19 04:45 | 1.48555 | 104.04733 | 4735 ft | 270 kts | 3° |
| 2026-04-19 04:45 | 1.50438 | 104.04569 | 5499 ft | 275 kts | 346° |
| 2026-04-19 04:45 | 1.52215 | 104.03846 | 6262 ft | 279 kts | 331° |
| 2026-04-19 04:45 | 1.53924 | 104.02910 | 7029 ft | 281 kts | 331° |
| 2026-04-19 04:46 | 1.55654 | 104.01969 | 7742 ft | 285 kts | 331° |
| 2026-04-19 04:46 | 1.57413 | 104.01017 | 8427 ft | 289 kts | 331° |
| 2026-04-19 04:46 | 1.59193 | 104.00054 | 9090 ft | 293 kts | 331° |
| 2026-04-19 04:46 | 1.60992 | 103.99082 | 9754 ft | 296 kts | 331° |
| 2026-04-19 04:47 | 1.62823 | 103.98095 | 10230 ft | 307 kts | 331° |
| 2026-04-19 04:47 | 1.64768 | 103.97047 | 10364 ft | 328 kts | 331° |
| 2026-04-19 04:47 | 1.66840 | 103.95932 | 10521 ft | 346 kts | 331° |
| 2026-04-19 04:47 | 1.68985 | 103.94777 | 10967 ft | 353 kts | 331° |
| 2026-04-19 04:48 | 1.71163 | 103.93604 | 11503 ft | 358 kts | 331° |
| 2026-04-19 04:48 | 1.73333 | 103.92433 | 12060 ft | 361 kts | 332° |
| 2026-04-19 04:48 | 1.75696 | 103.91469 | 12622 ft | 365 kts | 344° |
| 2026-04-19 04:48 | 1.78200 | 103.91019 | 13188 ft | 367 kts | 355° |
| 2026-04-19 04:49 | 1.80760 | 103.90862 | 13753 ft | 370 kts | 356° |
| 2026-04-19 04:49 | 1.83304 | 103.90706 | 14299 ft | 372 kts | 356° |
| 2026-04-19 04:49 | 1.85901 | 103.90544 | 14848 ft | 375 kts | 356° |
| 2026-04-19 04:49 | 1.88510 | 103.90380 | 15398 ft | 377 kts | 356° |
| 2026-04-19 04:50 | 1.91138 | 103.90213 | 15937 ft | 379 kts | 356° |
| 2026-04-19 04:50 | 1.93779 | 103.90042 | 16451 ft | 382 kts | 356° |
| 2026-04-19 04:50 | 1.96439 | 103.89870 | 16959 ft | 384 kts | 356° |
| 2026-04-19 04:50 | 1.99115 | 103.89700 | 17475 ft | 387 kts | 356° |
| 2026-04-19 04:51 | 2.01809 | 103.89530 | 17988 ft | 389 kts | 356° |
| 2026-04-19 04:51 | 2.04522 | 103.89359 | 18495 ft | 392 kts | 356° |
| 2026-04-19 04:51 | 2.07252 | 103.89183 | 18984 ft | 395 kts | 356° |
| 2026-04-19 04:51 | 2.10001 | 103.89005 | 19450 ft | 398 kts | 356° |
| 2026-04-19 04:52 | 2.12777 | 103.88827 | 19904 ft | 401 kts | 356° |
| 2026-04-19 04:52 | 2.15577 | 103.88646 | 20364 ft | 405 kts | 356° |
| 2026-04-19 04:52 | 2.18394 | 103.88466 | 20820 ft | 407 kts | 356° |
| 2026-04-19 04:52 | 2.21233 | 103.88285 | 21295 ft | 410 kts | 356° |
| 2026-04-19 04:53 | 2.24094 | 103.88104 | 21677 ft | 414 kts | 356° |
| 2026-04-19 04:53 | 2.26978 | 103.87922 | 22076 ft | 417 kts | 356° |
| 2026-04-19 04:53 | 2.29881 | 103.87737 | 22455 ft | 420 kts | 356° |
| 2026-04-19 04:53 | 2.32805 | 103.87550 | 22823 ft | 422 kts | 356° |
| 2026-04-19 04:54 | 2.35748 | 103.87365 | 23173 ft | 425 kts | 356° |
| 2026-04-19 04:54 | 2.38634 | 103.86935 | 23491 ft | 427 kts | 346° |
| 2026-04-19 04:54 | 2.41460 | 103.85985 | 23813 ft | 430 kts | 336° |
| 2026-04-19 04:54 | 2.44185 | 103.84729 | 24134 ft | 432 kts | 335° |
| 2026-04-19 04:55 | 2.46924 | 103.83466 | 24450 ft | 435 kts | 335° |
| 2026-04-19 04:55 | 2.49678 | 103.82203 | 24765 ft | 437 kts | 335° |
| 2026-04-19 04:55 | 2.52449 | 103.80937 | 25052 ft | 438 kts | 335° |
| 2026-04-19 04:55 | 2.55230 | 103.79672 | 25342 ft | 440 kts | 335° |
| 2026-04-19 04:56 | 2.58023 | 103.78397 | 25624 ft | 442 kts | 335° |
| 2026-04-19 04:56 | 2.60830 | 103.77113 | 25916 ft | 444 kts | 335° |
| 2026-04-19 04:56 | 2.63645 | 103.75825 | 26192 ft | 446 kts | 335° |
| 2026-04-19 04:56 | 2.66472 | 103.74529 | 26461 ft | 448 kts | 335° |
| 2026-04-19 04:57 | 2.69307 | 103.73231 | 26720 ft | 449 kts | 335° |
| 2026-04-19 04:57 | 2.72156 | 103.71928 | 26977 ft | 451 kts | 335° |
| 2026-04-19 04:57 | 2.75020 | 103.70627 | 27234 ft | 453 kts | 335° |
| 2026-04-19 04:57 | 2.77899 | 103.69334 | 27466 ft | 455 kts | 336° |
| 2026-04-19 04:58 | 2.80795 | 103.68044 | 27710 ft | 456 kts | 336° |
| 2026-04-19 04:58 | 2.83697 | 103.66752 | 27966 ft | 458 kts | 336° |
| 2026-04-19 04:58 | 2.86613 | 103.65450 | 28212 ft | 459 kts | 336° |
| 2026-04-19 04:58 | 2.89534 | 103.64140 | 28453 ft | 461 kts | 336° |
| 2026-04-19 04:59 | 2.92469 | 103.62829 | 28693 ft | 463 kts | 336° |
| 2026-04-19 04:59 | 2.95408 | 103.61521 | 29019 ft | 462 kts | 336° |
| 2026-04-19 04:59 | 2.98338 | 103.60216 | 29392 ft | 460 kts | 336° |
| 2026-04-19 04:59 | 3.01260 | 103.58914 | 29744 ft | 459 kts | 335° |
| 2026-04-19 05:00 | 3.04139 | 103.57633 | 30082 ft | 459 kts | 336° |
| 2026-04-19 05:00 | 3.07055 | 103.56339 | 30438 ft | 458 kts | 336° |
| 2026-04-19 05:00 | 3.09968 | 103.55044 | 30800 ft | 457 kts | 336° |
| 2026-04-19 05:00 | 3.12874 | 103.53754 | 31150 ft | 456 kts | 336° |
| 2026-04-19 05:01 | 3.15771 | 103.52468 | 31515 ft | 455 kts | 335° |
| 2026-04-19 05:01 | 3.18661 | 103.51180 | 31892 ft | 454 kts | 335° |
| 2026-04-19 05:01 | 3.21544 | 103.49885 | 32255 ft | 453 kts | 335° |
| 2026-04-19 05:01 | 3.24412 | 103.48592 | 32608 ft | 452 kts | 335° |
| 2026-04-19 05:02 | 3.27275 | 103.47299 | 32959 ft | 451 kts | 335° |
| 2026-04-19 05:02 | 3.30135 | 103.46007 | 33316 ft | 450 kts | 335° |
| 2026-04-19 05:02 | 3.32986 | 103.44721 | 33669 ft | 449 kts | 335° |
| 2026-04-19 05:02 | 3.35828 | 103.43438 | 33999 ft | 448 kts | 335° |
| 2026-04-19 05:03 | 3.38668 | 103.42157 | 34321 ft | 447 kts | 335° |
| 2026-04-19 05:03 | 3.41520 | 103.40923 | 34648 ft | 446 kts | 337° |
| 2026-04-19 05:03 | 3.44395 | 103.39760 | 34934 ft | 445 kts | 338° |
| 2026-04-19 05:03 | 3.47281 | 103.38641 | 35191 ft | 445 kts | 339° |
| 2026-04-19 05:04 | 3.50134 | 103.37554 | 35450 ft | 445 kts | 339° |
| 2026-04-19 05:04 | 3.53028 | 103.36447 | 35705 ft | 445 kts | 338° |
| 2026-04-19 05:04 | 3.55913 | 103.35328 | 35852 ft | 445 kts | 338° |
| 2026-04-19 05:04 | 3.58808 | 103.34186 | 35901 ft | 450 kts | 338° |
| 2026-04-19 05:05 | 3.64675 | 103.31842 | 35897 ft | 456 kts | 338° |
| 2026-04-19 05:05 | 3.70580 | 103.29481 | 35897 ft | 457 kts | 338° |
| 2026-04-19 05:06 | 3.76494 | 103.27122 | 35897 ft | 457 kts | 338° |
| 2026-04-19 05:06 | 3.82411 | 103.24768 | 35898 ft | 458 kts | 338° |
| 2026-04-19 05:07 | 3.88331 | 103.22420 | 35901 ft | 458 kts | 338° |
| 2026-04-19 05:07 | 3.94251 | 103.20073 | 35903 ft | 458 kts | 338° |
| 2026-04-19 05:08 | 4.03127 | 103.16533 | 35906 ft | 458 kts | 338° |
| 2026-04-19 05:09 | 4.09007 | 103.14190 | 35908 ft | 458 kts | 338° |
| 2026-04-19 05:09 | 4.14923 | 103.11843 | 35909 ft | 457 kts | 338° |
| 2026-04-19 05:10 | 4.20843 | 103.09493 | 35911 ft | 458 kts | 338° |
| 2026-04-19 05:10 | 4.26761 | 103.07141 | 35914 ft | 458 kts | 338° |
| 2026-04-19 05:11 | 4.32686 | 103.04775 | 35913 ft | 458 kts | 338° |
| 2026-04-19 05:11 | 4.38605 | 103.02417 | 35917 ft | 458 kts | 338° |
| 2026-04-19 05:12 | 4.44529 | 103.00063 | 35922 ft | 458 kts | 337° |
| 2026-04-19 05:12 | 4.50452 | 102.97703 | 35922 ft | 458 kts | 337° |
| 2026-04-19 05:13 | 4.56371 | 102.95345 | 35923 ft | 458 kts | 337° |
| 2026-04-19 05:13 | 4.62291 | 102.92988 | 35921 ft | 458 kts | 337° |
| 2026-04-19 05:14 | 4.67210 | 102.91023 | 35919 ft | 459 kts | 337° |
| 2026-04-19 05:14 | 4.73139 | 102.88658 | 35920 ft | 458 kts | 337° |
| 2026-04-19 05:15 | 4.80029 | 102.85914 | 35923 ft | 459 kts | 337° |
| 2026-04-19 05:15 | 4.85961 | 102.83555 | 35925 ft | 459 kts | 337° |
| 2026-04-19 05:16 | 4.90932 | 102.81579 | 35925 ft | 459 kts | 337° |
| 2026-04-19 05:16 | 4.96826 | 102.79232 | 35927 ft | 458 kts | 337° |
| 2026-04-19 05:17 | 5.02752 | 102.76880 | 35926 ft | 458 kts | 337° |
| 2026-04-19 05:17 | 5.08686 | 102.74526 | 35926 ft | 459 kts | 337° |
| 2026-04-19 05:18 | 5.14582 | 102.72183 | 35895 ft | 453 kts | 337° |
| 2026-04-19 05:18 | 5.20470 | 102.69837 | 35898 ft | 456 kts | 337° |
| 2026-04-19 05:19 | 5.26367 | 102.67454 | 35900 ft | 457 kts | 337° |
| 2026-04-19 05:19 | 5.32269 | 102.65058 | 35903 ft | 458 kts | 337° |
| 2026-04-19 05:20 | 5.38181 | 102.62671 | 35903 ft | 458 kts | 337° |
| 2026-04-19 05:20 | 5.44105 | 102.60316 | 35904 ft | 458 kts | 337° |
| 2026-04-19 05:21 | 5.50027 | 102.57962 | 35907 ft | 458 kts | 337° |
| 2026-04-19 05:21 | 5.55949 | 102.55596 | 35908 ft | 458 kts | 337° |
| 2026-04-19 05:22 | 5.61868 | 102.53230 | 35908 ft | 458 kts | 337° |
| 2026-04-19 05:22 | 5.67745 | 102.50880 | 35909 ft | 458 kts | 337° |
| 2026-04-19 05:23 | 5.73662 | 102.48511 | 35910 ft | 458 kts | 337° |
| 2026-04-19 05:23 | 5.79582 | 102.46147 | 35911 ft | 458 kts | 337° |
| 2026-04-19 05:24 | 5.85497 | 102.43781 | 35911 ft | 458 kts | 337° |
| 2026-04-19 05:24 | 5.91413 | 102.41406 | 35909 ft | 458 kts | 337° |
| 2026-04-19 05:25 | 5.97331 | 102.39039 | 35911 ft | 458 kts | 337° |
| 2026-04-19 05:25 | 6.03247 | 102.36667 | 35914 ft | 458 kts | 337° |
| 2026-04-19 05:26 | 6.09162 | 102.34304 | 35914 ft | 457 kts | 337° |
| 2026-04-19 05:26 | 6.15073 | 102.31941 | 35915 ft | 457 kts | 337° |
| 2026-04-19 05:27 | 6.20735 | 102.29162 | 35914 ft | 456 kts | 331° |
| 2026-04-19 05:27 | 6.26379 | 102.26254 | 35913 ft | 456 kts | 332° |
| 2026-04-19 05:28 | 6.32030 | 102.23355 | 35913 ft | 456 kts | 332° |
| 2026-04-19 05:28 | 6.37679 | 102.20458 | 35914 ft | 456 kts | 332° |
| 2026-04-19 05:29 | 6.43326 | 102.17558 | 35912 ft | 456 kts | 332° |
| 2026-04-19 05:29 | 6.48975 | 102.14659 | 35916 ft | 456 kts | 332° |
| 2026-04-19 05:30 | 6.54623 | 102.11756 | 35921 ft | 456 kts | 331° |
| 2026-04-19 05:30 | 6.60266 | 102.08846 | 35924 ft | 456 kts | 331° |
| 2026-04-19 05:31 | 6.65904 | 102.05940 | 35927 ft | 455 kts | 331° |
| 2026-04-19 05:31 | 6.71537 | 102.03042 | 35929 ft | 454 kts | 331° |
| 2026-04-19 05:32 | 6.77165 | 102.00145 | 35927 ft | 454 kts | 331° |
| 2026-04-19 05:32 | 6.82786 | 101.97249 | 35931 ft | 454 kts | 331° |
| 2026-04-19 05:33 | 6.88411 | 101.94349 | 35934 ft | 454 kts | 331° |
| 2026-04-19 05:33 | 6.94033 | 101.91455 | 35937 ft | 454 kts | 331° |
| 2026-04-19 05:34 | 6.99649 | 101.88561 | 35936 ft | 453 kts | 331° |
| 2026-04-19 05:34 | 7.05255 | 101.85667 | 35938 ft | 453 kts | 331° |
| 2026-04-19 05:35 | 7.10864 | 101.82774 | 35939 ft | 453 kts | 331° |
| 2026-04-19 05:35 | 7.16432 | 101.79905 | 35941 ft | 452 kts | 331° |
| 2026-04-19 05:36 | 7.22029 | 101.77019 | 35939 ft | 451 kts | 331° |
| 2026-04-19 05:36 | 7.27614 | 101.74136 | 35937 ft | 451 kts | 331° |
| 2026-04-19 05:37 | 7.33195 | 101.71250 | 35937 ft | 451 kts | 331° |
| 2026-04-19 05:37 | 7.38767 | 101.68371 | 35935 ft | 450 kts | 331° |
| 2026-04-19 05:38 | 7.44338 | 101.65493 | 35929 ft | 449 kts | 331° |
| 2026-04-19 05:38 | 7.49895 | 101.62618 | 35923 ft | 449 kts | 331° |
| 2026-04-19 05:39 | 7.55456 | 101.59747 | 35921 ft | 449 kts | 331° |
| 2026-04-19 05:39 | 7.61022 | 101.56874 | 35917 ft | 449 kts | 331° |
| 2026-04-19 05:40 | 7.66501 | 101.53873 | 35913 ft | 447 kts | 323° |
| 2026-04-19 05:40 | 7.71428 | 101.50056 | 35912 ft | 447 kts | 321° |
| 2026-04-19 05:41 | 7.76341 | 101.46224 | 35911 ft | 447 kts | 321° |
| 2026-04-19 05:41 | 7.81259 | 101.42393 | 35911 ft | 447 kts | 321° |
| 2026-04-19 05:42 | 7.86179 | 101.38555 | 35911 ft | 447 kts | 321° |
| 2026-04-19 05:42 | 7.91094 | 101.34719 | 35908 ft | 447 kts | 321° |
| 2026-04-19 05:43 | 7.96009 | 101.30880 | 35904 ft | 447 kts | 321° |
| 2026-04-19 05:43 | 8.00917 | 101.27040 | 35901 ft | 446 kts | 321° |
| 2026-04-19 05:44 | 8.05795 | 101.23232 | 35905 ft | 446 kts | 321° |
| 2026-04-19 05:44 | 8.10704 | 101.19400 | 35907 ft | 446 kts | 321° |
| 2026-04-19 05:45 | 8.15614 | 101.15568 | 35907 ft | 446 kts | 321° |
| 2026-04-19 05:45 | 8.20514 | 101.11734 | 35906 ft | 446 kts | 321° |
| 2026-04-19 05:46 | 8.25411 | 101.07904 | 35904 ft | 445 kts | 321° |
| 2026-04-19 05:46 | 8.30309 | 101.04074 | 35904 ft | 445 kts | 321° |
| 2026-04-19 05:47 | 8.35204 | 101.00244 | 35902 ft | 445 kts | 321° |
| 2026-04-19 05:47 | 8.40098 | 100.96413 | 35875 ft | 446 kts | 321° |
| 2026-04-19 05:47 | 8.42546 | 100.94493 | 35625 ft | 445 kts | 321° |
| 2026-04-19 05:48 | 8.44994 | 100.92575 | 35335 ft | 445 kts | 321° |
| 2026-04-19 05:48 | 8.47448 | 100.90653 | 34524 ft | 448 kts | 321° |
| 2026-04-19 05:48 | 8.49920 | 100.88713 | 33684 ft | 452 kts | 321° |
| 2026-04-19 05:48 | 8.52407 | 100.86761 | 32808 ft | 455 kts | 321° |
| 2026-04-19 05:49 | 8.54917 | 100.84797 | 31917 ft | 457 kts | 322° |
| 2026-04-19 05:49 | 8.57423 | 100.82839 | 31390 ft | 452 kts | 322° |
| 2026-04-19 05:49 | 8.59901 | 100.80900 | 30805 ft | 449 kts | 322° |
| 2026-04-19 05:49 | 8.62353 | 100.78977 | 30229 ft | 445 kts | 322° |
| 2026-04-19 05:50 | 8.64790 | 100.77065 | 29651 ft | 442 kts | 322° |
| 2026-04-19 05:50 | 8.67174 | 100.75196 | 29084 ft | 438 kts | 322° |
| 2026-04-19 05:50 | 8.69572 | 100.73316 | 28504 ft | 434 kts | 322° |
| 2026-04-19 05:50 | 8.71948 | 100.71454 | 27948 ft | 431 kts | 322° |
| 2026-04-19 05:51 | 8.74307 | 100.69604 | 27388 ft | 427 kts | 322° |
| 2026-04-19 05:51 | 8.76648 | 100.67768 | 26829 ft | 424 kts | 322° |
| 2026-04-19 05:51 | 8.78968 | 100.65947 | 26279 ft | 421 kts | 322° |
| 2026-04-19 05:51 | 8.81270 | 100.64140 | 25747 ft | 417 kts | 322° |
| 2026-04-19 05:52 | 8.83554 | 100.62348 | 25214 ft | 414 kts | 322° |
| 2026-04-19 05:52 | 8.85820 | 100.60568 | 24702 ft | 411 kts | 322° |
| 2026-04-19 05:52 | 8.88069 | 100.58799 | 24197 ft | 409 kts | 321° |
| 2026-04-19 05:52 | 8.90303 | 100.57042 | 23713 ft | 406 kts | 321° |
| 2026-04-19 05:53 | 8.92527 | 100.55296 | 23233 ft | 403 kts | 322° |
| 2026-04-19 05:53 | 8.94733 | 100.53561 | 22766 ft | 401 kts | 322° |
| 2026-04-19 05:53 | 8.96933 | 100.51831 | 22297 ft | 399 kts | 322° |
| 2026-04-19 05:53 | 8.99118 | 100.50109 | 21840 ft | 397 kts | 322° |
| 2026-04-19 05:54 | 9.01290 | 100.48397 | 21355 ft | 395 kts | 322° |
| 2026-04-19 05:54 | 9.03453 | 100.46688 | 20863 ft | 393 kts | 322° |
| 2026-04-19 05:54 | 9.05602 | 100.44988 | 20377 ft | 391 kts | 322° |
| 2026-04-19 05:54 | 9.07739 | 100.43299 | 19879 ft | 389 kts | 322° |
| 2026-04-19 05:55 | 9.09867 | 100.41617 | 19373 ft | 386 kts | 322° |
| 2026-04-19 05:55 | 9.11980 | 100.39949 | 18863 ft | 385 kts | 322° |
| 2026-04-19 05:55 | 9.14084 | 100.38290 | 18354 ft | 382 kts | 322° |
| 2026-04-19 05:55 | 9.16178 | 100.36639 | 17842 ft | 380 kts | 322° |
| 2026-04-19 05:56 | 9.18254 | 100.35000 | 17316 ft | 378 kts | 322° |
| 2026-04-19 05:56 | 9.20316 | 100.33369 | 16805 ft | 375 kts | 322° |
| 2026-04-19 05:56 | 9.22366 | 100.31749 | 16297 ft | 372 kts | 322° |
| 2026-04-19 05:56 | 9.24398 | 100.30144 | 15799 ft | 369 kts | 322° |
| 2026-04-19 05:57 | 9.26502 | 100.28676 | 15259 ft | 366 kts | 332° |
| 2026-04-19 05:57 | 9.28832 | 100.27665 | 14719 ft | 364 kts | 344° |
| 2026-04-19 05:57 | 9.31301 | 100.27184 | 14208 ft | 360 kts | 356° |
| 2026-04-19 05:57 | 9.33769 | 100.27249 | 13897 ft | 351 kts | 7° |
| 2026-04-19 05:58 | 9.36181 | 100.27522 | 13442 ft | 347 kts | 7° |
| 2026-04-19 05:58 | 9.38554 | 100.27795 | 12710 ft | 341 kts | 7° |
| 2026-04-19 05:58 | 9.40900 | 100.28068 | 11879 ft | 337 kts | 7° |
| 2026-04-19 05:58 | 9.43212 | 100.28338 | 11082 ft | 333 kts | 7° |
| 2026-04-19 05:59 | 9.45501 | 100.28606 | 10240 ft | 330 kts | 7° |
| 2026-04-19 05:59 | 9.47728 | 100.28867 | 9747 ft | 318 kts | 7° |
| 2026-04-19 05:59 | 9.49857 | 100.29114 | 9496 ft | 300 kts | 7° |
| 2026-04-19 05:59 | 9.51905 | 100.29354 | 8966 ft | 294 kts | 8° |
| 2026-04-19 06:00 | 9.53930 | 100.29592 | 8387 ft | 294 kts | 8° |
| 2026-04-19 06:00 | 9.55957 | 100.29829 | 8070 ft | 292 kts | 7° |
| 2026-04-19 06:00 | 9.57980 | 100.29925 | 7739 ft | 291 kts | 0° |
| 2026-04-19 06:00 | 9.59999 | 100.29921 | 7399 ft | 290 kts | 1° |
| 2026-04-19 06:01 | 9.62012 | 100.29923 | 7079 ft | 288 kts | 1° |
| 2026-04-19 06:01 | 9.64004 | 100.29926 | 6981 ft | 287 kts | 1° |
| 2026-04-19 06:01 | 9.66010 | 100.29928 | 6995 ft | 289 kts | 1° |
| 2026-04-19 06:01 | 9.68023 | 100.29927 | 6999 ft | 289 kts | 1° |
| 2026-04-19 06:02 | 9.70035 | 100.29871 | 7004 ft | 289 kts | 351° |
| 2026-04-19 06:02 | 9.71879 | 100.29107 | 6999 ft | 290 kts | 322° |
| 2026-04-19 06:02 | 9.73163 | 100.27548 | 6751 ft | 294 kts | 295° |
| 2026-04-19 06:02 | 9.73533 | 100.25518 | 6312 ft | 293 kts | 267° |
| 2026-04-19 06:03 | 9.73480 | 100.23470 | 6026 ft | 289 kts | 268° |
| 2026-04-19 06:03 | 9.73465 | 100.21436 | 5696 ft | 288 kts | 269° |
| 2026-04-19 06:03 | 9.73468 | 100.19414 | 5373 ft | 286 kts | 269° |
| 2026-04-19 06:03 | 9.73478 | 100.17405 | 4941 ft | 287 kts | 269° |
| 2026-04-19 06:04 | 9.73487 | 100.15332 | 4166 ft | 301 kts | 269° |
| 2026-04-19 06:04 | 9.73486 | 100.13202 | 3767 ft | 299 kts | 266° |
| 2026-04-19 06:04 | 9.73016 | 100.11225 | 3610 ft | 284 kts | 239° |
| 2026-04-19 06:04 | 9.71727 | 100.09817 | 3314 ft | 277 kts | 210° |
| 2026-04-19 06:05 | 9.70003 | 100.08968 | 2934 ft | 274 kts | 203° |
| 2026-04-19 06:05 | 9.68297 | 100.08191 | 2569 ft | 263 kts | 203° |
| 2026-04-19 06:05 | 9.66667 | 100.07455 | 2270 ft | 249 kts | 203° |
| 2026-04-19 06:05 | 9.65117 | 100.06751 | 1949 ft | 240 kts | 203° |
| 2026-04-19 06:06 | 9.63631 | 100.06072 | 1642 ft | 228 kts | 203° |
| 2026-04-19 06:06 | 9.62190 | 100.05586 | 1435 ft | 207 kts | 182° |
| 2026-04-19 06:06 | 9.60783 | 100.05663 | 1195 ft | 199 kts | 175° |
| 2026-04-19 06:06 | 9.59476 | 100.05788 | 922 ft | 177 kts | 174° |
| 2026-04-19 06:07 | 9.58323 | 100.05922 | 657 ft | 156 kts | 172° |
| 2026-04-19 06:07 | 9.57289 | 100.06033 | 406 ft | 144 kts | 175° |
| 2026-04-19 06:07 | 9.56627 | 100.06081 | 244 ft | 143 kts | 174° |
| 2026-04-19 06:07 | 9.55648 | 100.06168 | 60 ft | 143 kts | 174° |
| 2026-04-19 06:08 | 9.54746 | 100.06260 | 21 ft | 109 kts | 173° |
| 2026-04-19 06:08 | 9.54286 | 100.06307 | 22 ft | 36 kts | 175° |
| 2026-04-19 06:08 | 9.54051 | 100.06327 | 26 ft | 29 kts | 173° |
| 2026-04-19 06:08 | 9.53922 | 100.06324 | 26 ft | 14 kts | 200° |
| 2026-04-19 06:09 | 9.53876 | 100.06340 | 27 ft | 6 kts | 31° |
| 2026-04-19 06:09 | 9.53950 | 100.06338 | 25 ft | 19 kts | 348° |
| 2026-04-19 06:09 | 9.54101 | 100.06319 | 24 ft | 24 kts | 355° |
| 2026-04-19 06:09 | 9.54274 | 100.06306 | 22 ft | 26 kts | 355° |
| 2026-04-19 06:10 | 9.54465 | 100.06287 | 24 ft | 29 kts | 354° |
| 2026-04-19 06:10 | 9.54671 | 100.06267 | 22 ft | 31 kts | 354° |
| 2026-04-19 06:10 | 9.54871 | 100.06244 | 20 ft | 25 kts | 352° |
| 2026-04-19 06:10 | 9.54993 | 100.06241 | 22 ft | 9 kts | 28° |
| 2026-04-19 06:11 | 9.55012 | 100.06288 | 19 ft | 6 kts | 80° |
| 2026-04-19 06:11 | 9.55054 | 100.06313 | 19 ft | 8 kts | 2° |
| 2026-04-19 06:11 | 9.55080 | 100.06326 | 18 ft | 0 kts | 80° |
| 2026-04-19 06:12 | 9.55081 | 100.06346 | 16 ft | 0 kts | 83° |